createdAt,value
2022-08-11T00:01:06.161Z,46.08
2022-08-11T00:03:43.119Z,45.59
2022-08-11T00:06:11.891Z,45.23
2022-08-11T00:08:38.744Z,44.96
2022-08-11T00:11:08.894Z,45.17
2022-08-11T00:13:44.476Z,45.03
2022-08-11T00:16:21.550Z,44.91
2022-08-11T00:18:51.142Z,45.54
2022-08-11T00:21:20.216Z,45.91
2022-08-11T00:24:08.367Z,45.67
2022-08-11T00:26:36.336Z,45.12
2022-08-11T00:29:12.258Z,46.40
2022-08-11T00:31:44.258Z,46.72
2022-08-11T00:34:12.135Z,46.16
2022-08-11T00:37:02.723Z,45.73
2022-08-11T00:39:34.082Z,46.11
2022-08-11T00:42:20.045Z,47.80
2022-08-11T00:45:07.119Z,47.10
2022-08-11T00:47:33.503Z,46.58
2022-08-11T00:50:16.852Z,47.51
2022-08-11T00:53:07.753Z,46.09
2022-08-11T00:55:57.086Z,46.29
2022-08-11T00:58:51.044Z,48.03
2022-08-11T01:01:21.302Z,48.39
2022-08-11T01:04:31.241Z,47.48
2022-08-11T01:07:03.494Z,46.97
2022-08-11T01:10:07.182Z,48.86
2022-08-11T01:12:56.289Z,48.96
2022-08-11T01:15:58.765Z,48.35
2022-08-11T01:18:44.396Z,48.76
2022-08-11T01:21:59.638Z,49.33
2022-08-11T01:24:50.353Z,48.55
2022-08-11T01:27:36.392Z,48.59
2022-08-11T01:30:10.259Z,48.67
2022-08-11T01:33:19.445Z,48.69
2022-08-11T01:36:23.186Z,48.54
2022-08-11T01:39:08.044Z,48.58
2022-08-11T01:42:12.035Z,49.29
2022-08-11T01:45:03.235Z,49.66
2022-08-11T01:47:37.961Z,49.50
2022-08-11T01:50:22.182Z,49.70
2022-08-11T01:53:03.560Z,49.72
2022-08-11T01:55:48.280Z,50.12
2022-08-11T01:58:43.196Z,49.67
2022-08-11T02:01:44.227Z,49.71
2022-08-11T02:04:31.129Z,49.69
2022-08-11T02:07:35.790Z,49.96
2022-08-11T02:10:13.925Z,50.43
2022-08-11T02:13:15.338Z,51.20
2022-08-11T02:15:54.180Z,51.00
2022-08-11T02:18:33.856Z,50.59
2022-08-11T02:21:11.673Z,50.85
2022-08-11T02:24:14.340Z,51.44
2022-08-11T02:26:55.765Z,50.80
2022-08-11T02:29:33.319Z,50.99
2022-08-11T02:32:28.652Z,51.59
2022-08-11T02:35:03.992Z,50.09
2022-08-11T02:37:33.122Z,52.18
2022-08-11T02:39:59.373Z,51.44
2022-08-11T02:42:52.814Z,51.10
2022-08-11T02:46:17.945Z,52.05
2022-08-11T02:48:58.387Z,51.86
2022-08-11T02:51:29.935Z,52.33
2022-08-11T02:54:10.144Z,51.10
2022-08-11T02:56:52.243Z,51.09
2022-08-11T02:59:46.948Z,51.24
2022-08-11T03:02:51.710Z,51.42
2022-08-11T03:05:33.502Z,52.57
2022-08-11T03:08:05.898Z,52.70
2022-08-11T03:10:56.753Z,52.77
2022-08-11T03:13:31.739Z,51.19
2022-08-11T03:16:21.368Z,51.53
2022-08-11T03:19:11.776Z,52.61
2022-08-11T03:22:01.909Z,52.29
2022-08-11T03:24:55.877Z,53.13
2022-08-11T03:27:34.112Z,52.98
2022-08-11T03:30:10.401Z,53.33
2022-08-11T03:32:53.862Z,53.57
2022-08-11T03:35:21.550Z,52.16
2022-08-11T03:38:00.136Z,52.71
2022-08-11T03:40:50.646Z,52.24
2022-08-11T03:43:35.023Z,53.22
2022-08-11T03:46:16.657Z,52.43
2022-08-11T03:48:56.690Z,52.53
2022-08-11T03:51:52.452Z,52.66
2022-08-11T03:54:34.133Z,51.91
2022-08-11T03:57:26.139Z,52.09
2022-08-11T04:00:04.020Z,51.67
2022-08-11T04:02:48.770Z,51.20
2022-08-11T04:06:01.703Z,52.12
2022-08-11T04:09:05.860Z,52.71
2022-08-11T04:12:04.088Z,53.24
2022-08-11T04:15:07.942Z,54.10
2022-08-11T04:18:06.550Z,54.30
2022-08-11T04:20:49.344Z,53.95
2022-08-11T04:24:33.278Z,52.58
2022-08-11T04:26:50.612Z,51.93
2022-08-11T04:30:03.961Z,53.01
2022-08-11T04:32:41.153Z,52.00
2022-08-11T04:35:32.777Z,53.08
2022-08-11T04:38:33.958Z,52.64
2022-08-11T04:41:34.346Z,52.25
2022-08-11T04:44:32.503Z,52.79
2022-08-11T04:47:07.872Z,52.75
2022-08-11T04:49:54.213Z,53.19
2022-08-11T04:52:48.175Z,51.83
2022-08-11T04:55:45.428Z,52.93
2022-08-11T04:58:31.322Z,54.47
2022-08-11T05:01:27.202Z,52.83
2022-08-11T05:04:02.303Z,53.46
2022-08-11T05:06:56.515Z,54.40
2022-08-11T05:09:44.983Z,53.43
2022-08-11T05:12:20.262Z,54.38
2022-08-11T05:14:50.849Z,53.45
2022-08-11T05:17:27.523Z,53.76
2022-08-11T05:19:54.018Z,52.73
2022-08-11T05:22:25.432Z,52.96
2022-08-11T05:25:09.030Z,52.78
2022-08-11T05:28:07.893Z,52.25
2022-08-11T05:30:36.877Z,52.65
2022-08-11T05:33:10.345Z,53.11
2022-08-11T05:36:01.350Z,52.58
2022-08-11T05:38:26.547Z,53.51
2022-08-11T05:41:00.133Z,53.02
2022-08-11T05:43:26.894Z,52.97
2022-08-11T05:46:04.668Z,52.83
2022-08-11T05:48:36.283Z,52.81
2022-08-11T05:51:04.162Z,50.98
2022-08-11T05:53:46.183Z,51.66
2022-08-11T05:56:13.793Z,53.19
2022-08-11T05:58:43.242Z,52.26
2022-08-11T06:01:20.855Z,52.34
2022-08-11T06:03:58.049Z,51.92
2022-08-11T06:06:26.975Z,51.67
2022-08-11T06:08:58.179Z,50.35
2022-08-11T06:11:43.091Z,52.71
2022-08-11T06:14:12.005Z,51.77
2022-08-11T06:16:41.539Z,52.14
2022-08-11T06:19:09.025Z,51.20
2022-08-11T06:21:36.450Z,52.41
2022-08-11T06:24:12.333Z,51.44
2022-08-11T06:26:55.091Z,50.45
2022-08-11T06:29:37.784Z,52.43
2022-08-11T06:32:15.253Z,50.81
2022-08-11T06:34:59.895Z,50.63
2022-08-11T06:37:45.035Z,49.85
2022-08-11T06:40:31.016Z,49.80
2022-08-11T06:43:06.684Z,51.44
2022-08-11T06:45:51.287Z,49.40
2022-08-11T06:48:21.607Z,50.09
2022-08-11T06:50:53.084Z,48.58
2022-08-11T06:53:20.473Z,47.50
2022-08-11T06:55:58.252Z,47.58
2022-08-11T06:58:29.689Z,46.87
2022-08-11T07:00:58.723Z,48.20
2022-08-11T07:03:28.604Z,49.59
2022-08-11T07:06:15.492Z,48.63
2022-08-11T07:09:04.736Z,47.59
2022-08-11T07:11:53.048Z,48.00
2022-08-11T07:14:26.539Z,46.78
2022-08-11T07:16:54.007Z,48.31
2022-08-11T07:19:26.937Z,47.36
2022-08-11T07:22:02.929Z,47.60
2022-08-11T07:24:59.764Z,46.86
2022-08-11T07:27:37.684Z,43.73
2022-08-11T07:30:07.870Z,32.62
2022-08-11T07:32:50.953Z,30.67
2022-08-11T07:35:21.657Z,37.66
2022-08-11T07:40:37.110Z,31.91
2022-08-11T07:43:04.791Z,25.17
2022-08-11T07:45:31.926Z,24.24
2022-08-11T07:47:59.923Z,23.31
2022-08-11T07:50:26.785Z,34.37
2022-08-11T07:52:54.083Z,29.15
2022-08-11T07:55:22.118Z,22.74
2022-08-11T07:58:19.174Z,31.94
2022-08-11T08:00:53.237Z,36.17
2022-08-11T08:03:20.483Z,35.71
2022-08-11T08:05:48.049Z,33.53
2022-08-11T08:08:17.358Z,36.70
2022-08-11T08:10:44.231Z,36.90
2022-08-11T08:13:10.664Z,31.41
2022-08-11T08:15:37.668Z,30.84
2022-08-11T08:18:09.887Z,35.55
2022-08-11T08:20:55.166Z,37.57
2022-08-11T08:23:25.836Z,33.80
2022-08-11T08:25:52.443Z,37.91
2022-08-11T08:28:21.461Z,38.17
2022-08-11T08:30:50.186Z,38.41
2022-08-11T08:33:22.123Z,37.69
2022-08-11T08:35:54.369Z,38.84
2022-08-11T08:38:23.213Z,38.99
2022-08-11T08:40:53.984Z,37.58
2022-08-11T08:43:23.915Z,38.32
2022-08-11T08:45:55.598Z,39.30
2022-08-11T08:48:24.753Z,37.99
2022-08-11T08:50:57.689Z,39.09
2022-08-11T08:53:26.674Z,39.00
2022-08-11T08:55:54.144Z,38.22
2022-08-11T08:58:23.647Z,37.07
2022-08-11T09:00:53.191Z,36.80
2022-08-11T09:03:41.040Z,37.43
2022-08-11T09:06:07.435Z,36.82
2022-08-11T09:08:34.885Z,35.53
2022-08-11T09:11:03.848Z,30.51
2022-08-11T09:13:30.409Z,32.03
2022-08-11T09:15:56.785Z,33.90
2022-08-11T09:18:23.208Z,34.30
2022-08-11T09:20:49.714Z,33.80
2022-08-11T09:26:03.067Z,27.19
2022-08-11T09:28:30.263Z,29.27
2022-08-11T09:30:59.890Z,31.22
2022-08-11T09:33:28.119Z,31.37
2022-08-11T09:35:55.173Z,30.12
2022-08-11T09:38:26.032Z,29.94
2022-08-11T09:40:56.247Z,30.42
2022-08-11T09:43:24.844Z,30.90
2022-08-11T09:45:53.193Z,30.74
2022-08-11T09:48:21.897Z,30.68
2022-08-11T09:50:50.458Z,29.25
2022-08-11T09:53:35.270Z,30.05
2022-08-11T09:56:07.312Z,29.99
2022-08-11T09:58:42.698Z,30.37
2022-08-11T10:01:10.709Z,30.00
2022-08-11T10:03:41.192Z,29.85
2022-08-11T10:06:09.312Z,31.17
2022-08-11T10:08:39.085Z,29.51
2022-08-11T10:11:09.230Z,28.49
2022-08-11T10:13:44.110Z,29.67
2022-08-11T10:16:28.784Z,30.44
2022-08-11T10:18:56.051Z,29.56
2022-08-11T10:21:40.006Z,29.21
2022-08-11T10:24:07.706Z,29.16
2022-08-11T10:26:34.596Z,29.07
2022-08-11T10:29:12.955Z,29.38
2022-08-11T10:31:57.163Z,29.13
2022-08-11T10:34:24.440Z,29.65
2022-08-11T10:36:54.952Z,28.96
2022-08-11T10:39:22.257Z,27.81
2022-08-11T10:42:03.402Z,29.14
2022-08-11T10:44:50.395Z,27.73
2022-08-11T10:47:17.247Z,28.72
2022-08-11T10:49:43.940Z,28.66
2022-08-11T10:52:10.584Z,27.68
2022-08-11T10:54:40.674Z,28.44
2022-08-11T10:57:07.693Z,28.67
2022-08-11T10:59:34.232Z,28.79
2022-08-11T11:02:01.056Z,28.94
2022-08-11T11:04:39.520Z,28.05
2022-08-11T11:07:12.780Z,29.01
2022-08-11T11:09:56.681Z,27.93
2022-08-11T11:12:34.093Z,27.97
2022-08-11T11:15:03.428Z,28.42
2022-08-11T11:17:42.936Z,28.02
2022-08-11T11:20:34.618Z,27.75
2022-08-11T11:23:03.523Z,27.45
2022-08-11T11:25:55.452Z,26.92
2022-08-11T11:28:54.614Z,26.71
2022-08-11T11:31:42.956Z,26.86
2022-08-11T11:34:15.376Z,27.62
2022-08-11T11:36:54.845Z,27.41
2022-08-11T11:39:23.995Z,27.41
2022-08-11T11:41:53.760Z,27.08
2022-08-11T11:44:21.605Z,26.24
2022-08-11T11:46:49.142Z,26.87
2022-08-11T11:51:52.356Z,26.97
2022-08-11T11:54:25.092Z,26.29
2022-08-11T11:56:53.391Z,26.05
2022-08-11T11:59:26.169Z,26.29
2022-08-11T12:01:54.061Z,26.10
2022-08-11T12:04:21.904Z,25.92
2022-08-11T12:06:49.560Z,26.21
2022-08-11T12:09:16.693Z,25.29
2022-08-11T12:11:43.670Z,24.87
2022-08-11T12:14:11.191Z,24.04
2022-08-11T12:16:40.477Z,23.97
2022-08-11T12:19:17.280Z,24.79
2022-08-11T12:21:44.470Z,24.91
2022-08-11T12:24:17.950Z,24.78
2022-08-11T12:26:45.802Z,25.11
2022-08-11T12:29:32.817Z,24.49
2022-08-11T12:31:59.416Z,24.06
2022-08-11T12:34:27.328Z,23.76
2022-08-11T12:36:59.400Z,24.03
2022-08-11T12:40:16.910Z,23.54
2022-08-11T12:42:19.145Z,24.18
2022-08-11T12:44:46.320Z,23.94
2022-08-11T12:47:17.271Z,24.95
2022-08-11T12:49:50.948Z,25.35
2022-08-11T12:52:23.884Z,25.25
2022-08-11T12:55:09.643Z,24.89
2022-08-11T12:57:42.457Z,24.11
2022-08-11T13:00:09.681Z,24.48
2022-08-11T13:02:39.996Z,24.65
2022-08-11T13:05:12.574Z,24.48
2022-08-11T13:07:50.481Z,24.46
2022-08-11T13:10:20.098Z,23.54
2022-08-11T13:12:46.606Z,23.56
2022-08-11T13:15:16.977Z,24.53
2022-08-11T13:17:44.530Z,24.33
2022-08-11T13:20:12.357Z,24.22
2022-08-11T13:22:43.802Z,24.49
2022-08-11T13:25:14.958Z,24.04
2022-08-11T13:27:43.593Z,24.23
2022-08-11T13:30:10.731Z,24.29
2022-08-11T13:32:39.859Z,23.99
2022-08-11T13:35:09.215Z,24.36
2022-08-11T13:38:18.625Z,23.64
2022-08-11T13:40:33.308Z,24.37
2022-08-11T13:43:14.292Z,24.35
2022-08-11T13:45:42.201Z,24.26
2022-08-11T13:48:10.099Z,23.93
2022-08-11T13:50:37.469Z,24.10
2022-08-11T13:53:03.849Z,23.53
2022-08-11T13:55:45.550Z,23.37
2022-08-11T13:58:40.257Z,23.34
2022-08-11T14:02:03.808Z,24.03
2022-08-11T14:04:29.248Z,23.51
2022-08-11T14:06:46.162Z,23.88
2022-08-11T14:09:15.241Z,23.43
2022-08-11T14:12:21.846Z,23.35
2022-08-11T14:14:34.188Z,23.60
2022-08-11T14:17:06.063Z,24.92
2022-08-11T14:19:35.797Z,24.13
2022-08-11T14:22:07.288Z,24.13
2022-08-11T14:24:37.336Z,24.30
2022-08-11T14:27:05.420Z,23.79
2022-08-11T14:29:32.710Z,24.57
2022-08-11T14:32:13.927Z,23.54
2022-08-11T14:34:44.494Z,24.32
2022-08-11T14:37:13.699Z,24.02
2022-08-11T14:39:49.045Z,24.21
2022-08-11T14:42:17.955Z,24.15
2022-08-11T14:44:52.005Z,24.02
2022-08-11T14:47:23.831Z,23.86
2022-08-11T14:49:58.550Z,23.44
2022-08-11T14:52:37.793Z,24.36
2022-08-11T14:55:04.947Z,24.13
2022-08-11T14:57:55.392Z,25.38
2022-08-11T15:00:20.116Z,25.08
2022-08-11T15:02:48.871Z,24.74
2022-08-11T15:05:15.898Z,24.18
2022-08-11T15:07:42.586Z,24.71
2022-08-11T15:10:13.075Z,25.18
2022-08-11T15:12:41.183Z,24.88
2022-08-11T15:15:09.115Z,24.87
2022-08-11T15:17:43.391Z,24.98
2022-08-11T15:20:14.475Z,24.54
2022-08-11T15:22:40.953Z,24.50
2022-08-11T15:25:07.579Z,24.56
2022-08-11T15:27:35.577Z,23.80
2022-08-11T15:30:04.898Z,23.76
2022-08-11T15:32:33.444Z,24.06
2022-08-11T15:35:03.965Z,23.61
2022-08-11T15:37:31.361Z,23.37
2022-08-11T15:40:00.729Z,23.44
2022-08-11T15:42:28.972Z,23.91
2022-08-11T15:45:02.630Z,23.63
2022-08-11T15:47:38.851Z,23.12
2022-08-11T15:50:14.017Z,23.16
2022-08-11T15:52:48.490Z,23.64
2022-08-11T15:55:16.047Z,23.25
2022-08-11T15:57:44.388Z,23.33
2022-08-11T16:00:11.325Z,22.39
2022-08-11T16:02:38.205Z,22.70
2022-08-11T16:05:09.825Z,22.74
2022-08-11T16:07:40.971Z,22.72
2022-08-11T16:10:11.077Z,22.65
2022-08-11T16:12:57.497Z,22.89
2022-08-11T16:15:24.555Z,23.44
2022-08-11T16:17:54.184Z,22.86
2022-08-11T16:20:24.581Z,22.47
2022-08-11T16:22:55.208Z,22.90
2022-08-11T16:27:02.758Z,22.07
2022-08-11T16:28:17.740Z,22.48
2022-08-11T16:30:46.147Z,22.33
2022-08-11T16:33:50.636Z,22.64
2022-08-11T16:36:00.453Z,23.44
2022-08-11T16:38:28.428Z,23.03
2022-08-11T16:40:57.040Z,22.79
2022-08-11T16:43:30.434Z,23.66
2022-08-11T16:45:58.070Z,22.92
2022-08-11T16:48:36.144Z,23.36
2022-08-11T16:51:08.461Z,23.42
2022-08-11T16:54:03.621Z,23.49
2022-08-11T16:56:27.154Z,23.81
2022-08-11T16:58:59.980Z,23.44
2022-08-11T17:01:27.556Z,24.58
2022-08-11T17:04:02.629Z,24.13
2022-08-11T17:06:29.115Z,24.41
2022-08-11T17:08:57.474Z,24.79
2022-08-11T17:11:29.007Z,25.02
2022-08-11T17:14:01.439Z,24.66
2022-08-11T17:16:32.779Z,24.64
2022-08-11T17:19:11.524Z,25.19
2022-08-11T17:21:42.701Z,25.16
2022-08-11T17:24:13.508Z,25.43
2022-08-11T17:26:42.704Z,25.31
2022-08-11T17:29:10.181Z,25.17
2022-08-11T17:31:36.806Z,24.59
2022-08-11T17:34:03.764Z,24.53
2022-08-11T17:36:30.999Z,24.89
2022-08-11T17:38:57.581Z,24.82
2022-08-11T17:41:24.217Z,25.24
2022-08-11T17:43:53.239Z,25.45
2022-08-11T17:46:20.036Z,25.29
2022-08-11T17:48:47.975Z,25.23
2022-08-11T17:51:18.475Z,25.38
2022-08-11T17:54:18.239Z,25.19
2022-08-11T17:56:34.651Z,25.35
2022-08-11T17:59:01.732Z,25.15
2022-08-11T18:01:30.167Z,25.09
2022-08-11T18:03:59.051Z,25.50
2022-08-11T18:06:34.803Z,25.63
2022-08-11T18:09:05.205Z,25.45
2022-08-11T18:12:10.506Z,24.96
2022-08-11T18:14:23.693Z,25.09
2022-08-11T18:16:50.488Z,25.03
2022-08-11T18:19:17.060Z,25.69
2022-08-11T18:21:46.095Z,25.79
2022-08-11T18:24:37.277Z,25.61
2022-08-11T18:27:07.283Z,26.22
2022-08-11T18:29:41.918Z,25.75
2022-08-11T18:32:10.443Z,26.59
2022-08-11T18:34:40.830Z,26.82
2022-08-11T18:37:20.558Z,28.66
2022-08-11T18:39:56.835Z,27.35
2022-08-11T18:42:29.794Z,27.67
2022-08-11T18:45:00.036Z,27.25
2022-08-11T18:47:28.910Z,27.08
2022-08-11T18:50:02.388Z,27.52
2022-08-11T18:52:32.499Z,27.85
2022-08-11T18:55:01.581Z,28.00
2022-08-11T18:57:27.959Z,27.84
2022-08-11T19:00:01.063Z,28.53
2022-08-11T19:02:28.049Z,28.29
2022-08-11T19:04:56.773Z,28.71
2022-08-11T19:07:25.722Z,28.75
2022-08-11T19:09:55.273Z,28.92
2022-08-11T19:12:23.928Z,29.96
2022-08-11T19:14:53.506Z,31.04
2022-08-11T19:17:44.217Z,29.90
2022-08-11T19:20:12.590Z,32.66
2022-08-11T19:22:39.151Z,31.52
2022-08-11T19:25:06.634Z,33.26
2022-08-11T19:27:34.189Z,32.85
2022-08-11T19:30:07.675Z,32.90
2022-08-11T19:32:40.887Z,33.49
2022-08-11T19:35:08.974Z,32.25
2022-08-11T19:37:36.390Z,31.51
2022-08-11T19:40:11.815Z,33.94
2022-08-11T19:42:40.202Z,33.19
2022-08-11T19:45:08.062Z,33.31
2022-08-11T19:47:35.922Z,33.55
2022-08-11T19:50:04.457Z,32.13
2022-08-11T19:52:32.061Z,33.06
2022-08-11T19:54:58.855Z,32.84
2022-08-11T19:57:25.741Z,32.88
2022-08-11T19:59:52.357Z,34.02
2022-08-11T20:02:19.422Z,34.48
2022-08-11T20:04:45.981Z,34.64
2022-08-11T20:07:13.578Z,34.69
2022-08-11T20:10:05.390Z,34.15
2022-08-11T20:12:32.008Z,34.08
2022-08-11T20:14:59.817Z,33.56
2022-08-11T20:17:29.640Z,32.54
2022-08-11T20:22:30.662Z,33.23
2022-08-11T20:24:57.044Z,33.45
2022-08-11T20:27:25.082Z,33.45
2022-08-11T20:29:53.768Z,33.91
2022-08-11T20:32:20.741Z,34.54
2022-08-11T20:34:47.356Z,33.34
2022-08-11T20:37:14.535Z,33.51
2022-08-11T20:39:43.309Z,34.15
2022-08-11T20:42:11.357Z,33.69
2022-08-11T20:44:39.336Z,34.06
2022-08-11T20:47:13.165Z,33.48
2022-08-11T20:49:45.141Z,34.29
2022-08-11T20:52:20.797Z,33.41
2022-08-11T20:54:49.787Z,33.64
2022-08-11T20:57:18.638Z,33.86
2022-08-11T20:59:56.334Z,34.05
2022-08-11T21:02:26.722Z,34.13
2022-08-11T21:04:55.203Z,34.20
2022-08-11T21:07:26.135Z,34.00
2022-08-11T21:10:01.141Z,34.03
2022-08-11T21:12:38.301Z,34.25
2022-08-11T21:15:07.535Z,34.41
2022-08-11T21:17:36.823Z,33.91
2022-08-11T21:20:23.729Z,34.53
2022-08-11T21:22:59.633Z,34.46
2022-08-11T21:25:43.545Z,34.36
2022-08-11T21:28:11.793Z,34.41
2022-08-11T21:30:39.616Z,34.46
2022-08-11T21:33:06.022Z,34.59
2022-08-11T21:35:33.185Z,35.02
2022-08-11T21:38:02.680Z,35.24
2022-08-11T21:40:34.845Z,34.82
2022-08-11T21:43:02.837Z,34.69
2022-08-11T21:45:31.294Z,34.57
2022-08-11T21:48:00.864Z,34.81
2022-08-11T21:50:27.985Z,35.01
2022-08-11T21:52:57.464Z,35.10
2022-08-11T21:55:25.012Z,35.32
2022-08-11T21:57:53.188Z,35.37
2022-08-11T22:00:20.286Z,35.88
2022-08-11T22:02:48.970Z,36.02
2022-08-11T22:05:20.617Z,35.34
2022-08-11T22:07:47.092Z,36.14
2022-08-11T22:10:40.846Z,36.02
2022-08-11T22:13:00.396Z,35.54
2022-08-11T22:15:26.811Z,35.95
2022-08-11T22:17:57.779Z,36.05
2022-08-11T22:20:26.601Z,35.96
2022-08-11T22:22:54.725Z,36.15
2022-08-11T22:25:25.882Z,36.39
2022-08-11T22:28:05.073Z,36.16
2022-08-11T22:30:31.989Z,36.95
2022-08-11T22:33:00.919Z,36.99
2022-08-11T22:35:29.616Z,36.83
2022-08-11T22:37:58.699Z,36.58
2022-08-11T22:40:25.061Z,35.91
2022-08-11T22:42:51.398Z,35.67
2022-08-11T22:45:18.485Z,36.43
2022-08-11T22:47:48.088Z,36.01
2022-08-11T22:50:14.912Z,35.98
2022-08-11T22:52:42.866Z,35.99
2022-08-11T22:55:10.179Z,36.00
2022-08-11T22:57:38.994Z,36.62
2022-08-11T23:00:06.762Z,36.92
2022-08-11T23:02:33.630Z,37.06
2022-08-11T23:05:00.352Z,37.44
2022-08-11T23:07:49.401Z,37.58
2022-08-11T23:10:13.928Z,37.51
2022-08-11T23:12:47.532Z,37.85
2022-08-11T23:15:14.352Z,37.94
2022-08-11T23:17:41.215Z,38.15
2022-08-11T23:20:35.161Z,37.68
2022-08-11T23:22:56.414Z,38.01
2022-08-11T23:25:23.321Z,38.22
2022-08-11T23:27:49.789Z,38.38
2022-08-11T23:30:17.237Z,37.60
2022-08-11T23:32:48.198Z,37.50
2022-08-11T23:35:37.829Z,37.75
2022-08-11T23:38:01.703Z,38.06
2022-08-11T23:40:28.013Z,36.93
2022-08-11T23:42:55.279Z,37.75
2022-08-11T23:45:24.288Z,38.27
2022-08-11T23:47:51.366Z,38.25
2022-08-11T23:50:19.004Z,37.88
2022-08-11T23:52:45.671Z,38.38
2022-08-11T23:55:12.183Z,38.43
2022-08-11T23:57:47.517Z,38.75
